< < Back
Terminal Aerodrome Forecast


Current Version              Previous Versions:   1  2  3  4  5  6  7  8  9  

Terminal Aerodrome Forecast

388
FTUS42 KFFC 290118 AAB
TAFCSG
TAF AMD
KCSG 290118Z 2901/2924 10007KT P6SM FEW100 SCT200
     FM290800 35002KT P6SM SCT150
     FM291600 32005KT P6SM FEW050 SCT250 PROB30 2919/2923 VRB10G17KT
      2SM TSRA BR BKN030CB
     FM292300 27003KT P6SM SCT060=



Latest METAR

209
SAUS70 KWBC 290900
MTRCSG
METAR KCSG 290851Z AUTO 03004KT 10SM CLR 23/21 A2995 RMK AO2 SLP136
T02280211 55004


USA.gov is the U.S. government's official web portal to all federal, state and local government web resources and services.